Time;durP1;ratioP1;P1;durP2;ratioP2;P2;SDS_P1;SDS_P2;PMS_P1;PMS_P2;Temp;Humidity;BMP_temperature;BMP_pressure;BME280_temperature;BME280_humidity;BME280_pressure;Samples;Min_cycle;Max_cycle;Signal;HPM_P1;HPM_P2
2022/02/13 00:00:50;;;;;;;1.20;0.75;;;18.20;39.30;;;;;;5067415;28;20114;-53
2022/02/13 00:03:18;;;;;;;2.22;1.00;;;18.10;39.30;;;;;;5070967;28;20068;-53
2022/02/13 00:05:45;;;;;;;1.70;0.95;;;18.10;39.20;;;;;;5070167;28;20045;-53
2022/02/13 00:08:12;;;;;;;1.73;1.08;;;18.10;39.30;;;;;;5072061;28;20047;-52
2022/02/13 00:10:41;;;;;;;2.05;1.40;;;18.10;39.50;;;;;;5072256;28;20039;-53
2022/02/13 00:13:08;;;;;;;1.77;0.93;;;18.10;39.30;;;;;;5071076;28;20577;-53
2022/02/13 00:15:35;;;;;;;4.10;0.80;;;18.00;39.30;;;;;;5066427;28;20037;-52
2022/02/13 00:18:02;;;;;;;2.67;1.42;;;18.10;39.30;;;;;;5069330;28;20071;-52
2022/02/13 00:20:29;;;;;;;1.02;0.60;;;18.00;39.20;;;;;;5072767;28;20040;-52
2022/02/13 00:22:57;;;;;;;1.23;0.40;;;18.10;39.30;;;;;;5070468;28;20040;-52
2022/02/13 00:25:24;;;;;;;1.58;0.63;;;18.10;39.30;;;;;;5074720;28;20504;-53
2022/02/13 00:27:52;;;;;;;1.33;0.60;;;18.00;39.30;;;;;;5071087;28;20063;-53
2022/02/13 00:30:20;;;;;;;1.55;0.70;;;18.00;39.30;;;;;;5073757;28;20440;-53
2022/02/13 00:32:48;;;;;;;2.25;1.25;;;18.00;39.20;;;;;;5073850;28;20036;-56
2022/02/13 00:35:16;;;;;;;0.88;0.35;;;18.00;39.30;;;;;;5074757;28;20041;-54
2022/02/13 00:37:44;;;;;;;0.73;0.73;;;18.00;39.20;;;;;;5083220;28;20507;-54
2022/02/13 00:40:12;;;;;;;1.02;0.93;;;18.00;39.20;;;;;;5082959;28;20039;-52
2022/02/13 00:42:39;;;;;;;1.40;0.80;;;18.00;39.20;;;;;;5069120;28;20029;-54
2022/02/13 00:45:11;;;;;;;0.77;0.47;;;18.00;39.20;;;;;;5071396;28;20090;-52
2022/02/13 00:47:38;;;;;;;2.55;1.13;;;18.00;39.20;;;;;;5079875;28;20048;-56
2022/02/13 00:50:06;;;;;;;0.93;0.47;;;18.00;39.80;;;;;;5081643;28;20067;-55
2022/02/13 00:52:34;;;;;;;1.90;0.88;;;18.00;39.20;;;;;;5078108;28;20040;-54
2022/02/13 00:55:01;;;;;;;1.70;0.68;;;18.00;39.20;;;;;;5070606;28;20036;-52
2022/02/13 00:57:30;;;;;;;1.63;1.52;;;18.00;39.20;;;;;;5073346;28;20060;-53
2022/02/13 00:59:57;;;;;;;2.85;1.08;;;17.90;39.10;;;;;;5072844;28;20048;-52
2022/02/13 01:02:26;;;;;;;1.45;0.50;;;17.90;39.10;;;;;;5074542;28;20060;-55
2022/02/13 01:04:55;;;;;;;1.13;0.47;;;17.90;39.10;;;;;;5075731;28;20040;-51
2022/02/13 01:07:22;;;;;;;2.60;0.80;;;17.90;39.10;;;;;;5071623;28;20040;-55
2022/02/13 01:09:49;;;;;;;1.10;0.60;;;17.90;39.10;;;;;;5076938;28;20040;-54
2022/02/13 01:12:16;;;;;;;1.27;0.40;;;17.90;39.10;;;;;;5071038;28;20055;-52
2022/02/13 01:14:43;;;;;;;1.15;1.05;;;17.90;39.10;;;;;;5083674;28;20047;-54
2022/02/13 01:17:11;;;;;;;1.33;0.75;;;17.90;39.10;;;;;;5077838;28;20044;-54
2022/02/13 01:19:39;;;;;;;1.30;0.68;;;17.90;39.10;;;;;;5076801;28;20036;-52
2022/02/13 01:22:07;;;;;;;1.95;0.60;;;17.90;39.10;;;;;;5074914;28;20043;-56
2022/02/13 01:24:35;;;;;;;1.15;0.68;;;17.80;39.00;;;;;;5082462;28;20040;-55
2022/02/13 01:27:02;;;;;;;1.63;0.55;;;17.80;39.00;;;;;;5070867;28;20037;-54
2022/02/13 01:29:29;;;;;;;1.08;0.73;;;17.80;39.00;;;;;;5067693;28;20044;-54
2022/02/13 01:31:56;;;;;;;0.50;0.50;;;17.80;39.00;;;;;;5071597;28;20038;-55
2022/02/13 01:34:23;;;;;;;0.73;0.57;;;17.80;39.00;;;;;;5068820;28;20093;-54
2022/02/13 01:36:52;;;;;;;2.95;1.20;;;17.80;39.00;;;;;;5068827;28;20115;-53
2022/02/13 01:39:19;;;;;;;2.90;0.38;;;17.80;39.00;;;;;;5070636;28;20036;-53
2022/02/13 01:41:49;;;;;;;0.47;0.28;;;17.80;39.00;;;;;;5077172;28;20056;-54
2022/02/13 01:44:24;;;;;;;1.02;0.40;;;17.80;39.00;;;;;;5070886;28;20049;-54
2022/02/13 01:46:52;;;;;;;2.65;0.60;;;17.80;39.00;;;;;;5071326;28;20040;-53
2022/02/13 01:49:21;;;;;;;1.55;0.98;;;17.80;39.00;;;;;;5071379;28;20119;-51
2022/02/13 01:51:49;;;;;;;0.93;0.90;;;17.80;39.00;;;;;;5072945;28;20036;-55
2022/02/13 01:54:18;;;;;;;3.05;0.70;;;17.80;39.60;;;;;;5069232;28;20036;-50
2022/02/13 01:56:45;;;;;;;0.70;0.60;;;17.80;39.00;;;;;;5073532;28;20513;-55
2022/02/13 01:59:13;;;;;;;1.48;0.47;;;17.70;39.00;;;;;;5074881;28;20041;-54
2022/02/13 02:01:40;;;;;;;0.85;0.80;;;17.80;39.00;;;;;;5072602;28;20053;-51
2022/02/13 02:04:07;;;;;;;1.83;0.55;;;17.70;39.00;;;;;;5066211;28;20056;-52
2022/02/13 02:06:34;;;;;;;1.88;0.57;;;17.70;39.00;;;;;;5067336;28;20041;-50
2022/02/13 02:09:01;;;;;;;1.23;0.75;;;17.70;39.00;;;;;;5073791;28;20055;-50
2022/02/13 02:11:29;;;;;;;1.65;1.15;;;17.70;39.00;;;;;;5070284;28;20035;-54
2022/02/13 02:13:56;;;;;;;1.25;0.85;;;17.70;38.90;;;;;;5070827;28;20045;-54
2022/02/13 02:16:23;;;;;;;2.90;0.82;;;17.70;38.90;;;;;;5072393;28;20040;-53
2022/02/13 02:18:51;;;;;;;0.50;0.50;;;17.70;38.90;;;;;;5067599;28;20044;-53
2022/02/13 02:21:18;;;;;;;0.98;0.65;;;17.70;39.00;;;;;;5081810;28;20088;-51
2022/02/13 02:23:46;;;;;;;1.08;0.47;;;17.70;38.90;;;;;;5067412;28;20131;-52
2022/02/13 02:26:18;;;;;;;1.25;1.15;;;17.60;38.90;;;;;;5078251;28;20056;-56
2022/02/13 02:28:45;;;;;;;1.15;0.82;;;17.70;38.90;;;;;;5073443;28;20051;-52
2022/02/13 02:31:13;;;;;;;1.33;0.50;;;17.70;39.00;;;;;;5073256;28;20055;-52
2022/02/13 02:33:40;;;;;;;0.80;0.70;;;17.60;38.90;;;;;;5069038;28;20047;-50
2022/02/13 02:36:15;;;;;;;2.00;0.43;;;17.60;38.90;;;;;;5077374;28;20048;-54
2022/02/13 02:38:42;;;;;;;1.58;0.82;;;17.60;38.90;;;;;;5084144;28;20070;-55
2022/02/13 02:41:10;;;;;;;2.58;0.73;;;17.60;39.00;;;;;;5069136;28;20043;-54
2022/02/13 02:43:37;;;;;;;0.98;0.40;;;17.60;39.00;;;;;;5071792;28;20040;-55
2022/02/13 02:46:05;;;;;;;0.85;0.35;;;17.60;38.90;;;;;;5070204;28;20052;-51
2022/02/13 02:48:33;;;;;;;1.85;0.52;;;17.60;39.00;;;;;;5073385;28;20040;-55
2022/02/13 02:51:00;;;;;;;2.25;0.80;;;17.60;39.00;;;;;;5076328;28;20458;-52
2022/02/13 02:53:28;;;;;;;1.58;0.70;;;17.60;39.00;;;;;;5065858;28;20090;-54
2022/02/13 02:55:55;;;;;;;2.05;0.60;;;17.60;38.90;;;;;;5071876;28;20409;-49
2022/02/13 02:58:24;;;;;;;2.22;0.80;;;17.60;38.90;;;;;;5070073;28;20040;-50
2022/02/13 03:00:51;;;;;;;1.27;0.77;;;17.60;38.90;;;;;;5069325;28;20040;-54
2022/02/13 03:03:19;;;;;;;0.65;0.63;;;17.50;38.90;;;;;;5073545;28;20106;-55
2022/02/13 03:05:48;;;;;;;0.63;0.50;;;17.50;38.90;;;;;;5080346;28;20131;-54
2022/02/13 03:08:15;;;;;;;0.50;0.30;;;17.50;38.90;;;;;;5056551;28;20117;-52
2022/02/13 03:10:43;;;;;;;1.65;0.88;;;17.50;38.90;;;;;;5075730;28;20516;-53
2022/02/13 03:13:13;;;;;;;1.08;0.57;;;17.50;38.90;;;;;;5053505;28;20126;-54
2022/02/13 03:15:42;;;;;;;1.00;0.75;;;17.50;38.90;;;;;;5082509;28;20039;-52
2022/02/13 03:18:10;;;;;;;2.15;0.90;;;17.50;38.90;;;;;;5069773;28;20047;-50
2022/02/13 03:20:37;;;;;;;0.60;0.60;;;17.50;38.90;;;;;;5065764;28;20037;-53
2022/02/13 03:23:04;;;;;;;0.70;0.20;;;17.50;38.90;;;;;;5072713;28;20070;-50
2022/02/13 03:25:31;;;;;;;0.60;0.20;;;17.50;38.90;;;;;;5069552;28;20036;-52
2022/02/13 03:27:58;;;;;;;1.02;0.43;;;17.50;38.90;;;;;;5071370;28;20048;-49
2022/02/13 03:30:25;;;;;;;0.65;0.45;;;17.50;38.90;;;;;;5081621;28;20052;-51
2022/02/13 03:32:53;;;;;;;0.38;0.20;;;17.50;38.90;;;;;;5079747;28;20040;-53
2022/02/13 03:35:20;;;;;;;0.68;0.32;;;17.50;38.90;;;;;;5071071;28;20040;-53
2022/02/13 03:37:47;;;;;;;1.33;0.32;;;17.50;38.90;;;;;;5065662;28;20072;-53
2022/02/13 03:40:14;;;;;;;1.48;0.85;;;17.40;38.90;;;;;;5067629;28;20102;-53
2022/02/13 03:42:42;;;;;;;0.50;0.45;;;17.40;38.90;;;;;;5077520;28;20037;-53
2022/02/13 03:45:09;;;;;;;1.52;0.68;;;17.40;39.20;;;;;;5081634;28;20066;-53
2022/02/13 03:47:36;;;;;;;0.45;0.38;;;17.40;39.00;;;;;;5067808;28;20127;-53
2022/02/13 03:50:06;;;;;;;0.57;0.30;;;17.40;38.90;;;;;;5073848;28;20039;-52
2022/02/13 03:52:33;;;;;;;1.05;0.40;;;17.40;38.90;;;;;;5079091;28;20576;-54
2022/02/13 03:55:00;;;;;;;0.70;0.35;;;17.40;38.90;;;;;;5080584;28;20678;-55
2022/02/13 03:57:29;;;;;;;0.73;0.73;;;17.40;38.90;;;;;;5060924;28;20056;-53
2022/02/13 03:59:56;;;;;;;0.50;0.40;;;17.40;38.90;;;;;;5066640;28;20040;-51
2022/02/13 04:02:23;;;;;;;1.60;0.68;;;17.40;38.90;;;;;;5075735;28;20782;-53
2022/02/13 04:04:50;;;;;;;1.02;0.38;;;17.40;39.00;;;;;;5058962;28;20127;-53
2022/02/13 04:07:19;;;;;;;0.80;0.75;;;17.40;39.00;;;;;;5085775;28;20143;-54
2022/02/13 04:09:46;;;;;;;0.70;0.55;;;17.40;38.90;;;;;;5068058;28;20037;-53
2022/02/13 04:12:13;;;;;;;0.52;0.52;;;17.40;38.90;;;;;;5081186;28;20071;-55
2022/02/13 04:14:40;;;;;;;0.73;0.20;;;17.40;39.50;;;;;;5086420;28;20044;-54
2022/02/13 04:17:08;;;;;;;1.40;0.68;;;17.30;38.90;;;;;;5070090;28;20052;-51
2022/02/13 04:19:36;;;;;;;0.30;0.20;;;17.40;38.90;;;;;;5073845;28;20466;-54
2022/02/13 04:22:03;;;;;;;0.90;0.30;;;17.30;38.80;;;;;;5072370;28;20040;-51
2022/02/13 04:24:31;;;;;;;1.20;0.75;;;17.30;38.90;;;;;;5081472;28;20047;-52
2022/02/13 04:26:58;;;;;;;1.00;0.50;;;17.30;38.90;;;;;;5070701;28;20071;-50
2022/02/13 04:29:25;;;;;;;0.95;0.30;;;17.30;38.90;;;;;;5068727;28;20044;-52
2022/02/13 04:31:52;;;;;;;1.00;0.50;;;17.40;38.90;;;;;;5078465;28;20496;-54
2022/02/13 04:34:19;;;;;;;0.82;0.43;;;17.30;38.90;;;;;;5070002;28;20043;-49
2022/02/13 04:36:46;;;;;;;1.02;0.55;;;17.30;38.90;;;;;;5070844;28;20052;-52
2022/02/13 04:39:13;;;;;;;0.73;0.60;;;17.30;38.90;;;;;;5072330;28;20394;-49
2022/02/13 04:41:42;;;;;;;0.70;0.20;;;17.30;39.50;;;;;;5052952;28;20134;-51
2022/02/13 04:44:09;;;;;;;1.10;0.50;;;17.30;38.90;;;;;;5076501;28;20040;-51
2022/02/13 04:46:36;;;;;;;0.40;0.20;;;17.30;38.90;;;;;;5085101;28;20500;-50
2022/02/13 04:49:03;;;;;;;0.40;0.32;;;17.30;38.90;;;;;;5067526;28;20060;-50
2022/02/13 04:51:30;;;;;;;0.73;0.35;;;17.30;38.90;;;;;;5076891;28;20113;-51
2022/02/13 04:53:57;;;;;;;0.75;0.65;;;17.30;38.90;;;;;;5073863;28;20054;-52
2022/02/13 04:56:24;;;;;;;1.35;0.57;;;17.30;38.90;;;;;;5077509;28;20044;-50
2022/02/13 04:58:53;;;;;;;0.50;0.40;;;17.30;38.90;;;;;;5067639;28;20122;-52
2022/02/13 05:01:20;;;;;;;0.30;0.20;;;17.30;38.90;;;;;;5070567;28;20130;-53
2022/02/13 05:03:47;;;;;;;0.30;0.30;;;17.20;38.80;;;;;;5071015;28;20044;-52
2022/02/13 05:06:14;;;;;;;0.38;0.20;;;17.20;38.80;;;;;;5074361;28;20524;-51
2022/02/13 05:08:41;;;;;;;0.63;0.32;;;17.20;38.80;;;;;;5074188;28;20037;-53
2022/02/13 05:11:08;;;;;;;0.35;0.35;;;17.20;38.80;;;;;;5075096;28;20036;-50
2022/02/13 05:13:35;;;;;;;5.35;0.30;;;17.20;38.80;;;;;;5074830;28;20036;-51
2022/02/13 05:16:03;;;;;;;1.17;0.30;;;17.20;39.40;;;;;;5082036;28;20056;-55
2022/02/13 05:18:30;;;;;;;0.95;0.70;;;17.20;38.80;;;;;;5066758;28;20493;-50
2022/02/13 05:20:57;;;;;;;0.35;0.20;;;17.20;38.80;;;;;;5072943;28;20094;-50
2022/02/13 05:23:25;;;;;;;2.95;0.70;;;17.20;38.80;;;;;;5074835;28;20805;-53
2022/02/13 05:25:52;;;;;;;0.60;0.30;;;17.20;38.80;;;;;;5071084;28;20048;-55
2022/02/13 05:28:19;;;;;;;1.00;0.30;;;17.20;38.80;;;;;;5079139;28;20127;-50
2022/02/13 05:30:46;;;;;;;0.30;0.30;;;17.20;38.80;;;;;;5080605;28;20064;-55
2022/02/13 05:33:14;;;;;;;0.50;0.20;;;17.20;38.80;;;;;;5073346;28;20513;-55
2022/02/13 05:35:41;;;;;;;0.30;0.20;;;17.20;38.80;;;;;;5080446;28;20048;-54
2022/02/13 05:38:08;;;;;;;0.85;0.28;;;17.20;38.80;;;;;;5080099;28;20684;-54
2022/02/13 05:40:35;;;;;;;1.02;0.20;;;17.20;38.80;;;;;;5081740;28;20068;-55
2022/02/13 05:43:03;;;;;;;2.92;0.95;;;17.20;38.80;;;;;;5077371;28;20043;-53
2022/02/13 05:45:30;;;;;;;0.35;0.20;;;17.20;38.80;;;;;;5081584;28;20044;-53
2022/02/13 05:47:57;;;;;;;1.52;0.60;;;17.20;38.80;;;;;;5073877;28;20051;-55
2022/02/13 05:50:25;;;;;;;0.50;0.50;;;17.20;38.80;;;;;;5068938;28;20053;-54
2022/02/13 05:52:52;;;;;;;0.40;0.25;;;17.20;38.80;;;;;;5075059;28;20037;-53
2022/02/13 05:55:19;;;;;;;0.30;0.10;;;17.10;38.70;;;;;;5069632;28;20044;-52
2022/02/13 05:57:46;;;;;;;2.08;1.08;;;17.10;38.70;;;;;;5072798;28;20040;-52
2022/02/13 06:00:15;;;;;;;0.47;0.20;;;17.10;38.70;;;;;;5066256;28;20048;-54
2022/02/13 06:02:44;;;;;;;0.77;0.22;;;17.20;38.80;;;;;;5067129;28;20048;-53
2022/02/13 06:05:11;;;;;;;1.42;0.75;;;17.10;38.70;;;;;;5068722;28;20105;-52
2022/02/13 06:07:41;;;;;;;0.63;0.35;;;17.10;38.80;;;;;;5069900;28;20040;-54
2022/02/13 06:10:11;;;;;;;1.00;0.63;;;17.10;38.70;;;;;;5067030;28;20182;-53
2022/02/13 06:12:38;;;;;;;1.73;0.15;;;17.10;38.80;;;;;;5070220;28;20032;-52
2022/02/13 06:15:08;;;;;;;0.32;0.20;;;17.10;38.70;;;;;;5075487;28;20043;-55
2022/02/13 06:17:35;;;;;;;1.55;0.20;;;17.10;38.70;;;;;;5075508;28;20047;-55
2022/02/13 06:20:02;;;;;;;0.30;0.20;;;17.10;38.70;;;;;;5075664;28;20036;-52
2022/02/13 06:22:29;;;;;;;0.20;0.20;;;17.10;38.70;;;;;;5076956;28;20423;-52
2022/02/13 06:24:57;;;;;;;0.88;0.30;;;17.10;38.70;;;;;;5081554;28;20062;-50
2022/02/13 06:27:24;;;;;;;0.45;0.20;;;17.10;38.70;;;;;;5071813;28;26194;-53
2022/02/13 06:29:51;;;;;;;0.32;0.30;;;17.10;38.70;;;;;;5073866;28;20041;-54
2022/02/13 06:32:18;;;;;;;0.50;0.43;;;17.10;38.70;;;;;;5071891;28;20144;-56
2022/02/13 06:34:46;;;;;;;0.73;0.10;;;17.10;38.70;;;;;;5073861;28;20051;-52
2022/02/13 06:37:13;;;;;;;0.50;0.10;;;17.00;38.70;;;;;;5069398;28;20040;-52
2022/02/13 06:39:40;;;;;;;0.40;0.40;;;17.10;38.70;;;;;;5068197;28;20420;-52
2022/02/13 06:42:09;;;;;;;1.98;0.20;;;17.00;38.60;;;;;;5073923;28;20059;-53
2022/02/13 06:44:36;;;;;;;1.25;0.22;;;17.10;38.70;;;;;;5076127;28;20622;-52
2022/02/13 06:47:04;;;;;;;1.65;0.40;;;17.10;38.70;;;;;;5078862;28;20075;-54
2022/02/13 06:49:32;;;;;;;1.65;0.20;;;17.00;38.60;;;;;;5050404;28;20049;-56
2022/02/13 06:51:59;;;;;;;0.50;0.10;;;17.00;38.60;;;;;;5081628;28;20305;-54
2022/02/13 06:54:26;;;;;;;1.05;0.30;;;17.10;38.60;;;;;;5067182;28;20044;-53
2022/02/13 06:56:53;;;;;;;1.60;0.60;;;17.00;38.60;;;;;;5081512;28;20032;-56
2022/02/13 06:59:22;;;;;;;0.38;0.30;;;17.10;38.60;;;;;;5069546;28;20045;-56
2022/02/13 07:01:49;;;;;;;0.40;0.20;;;17.00;38.60;;;;;;5076231;28;20066;-56
2022/02/13 07:04:17;;;;;;;0.40;0.20;;;17.00;38.60;;;;;;5069574;28;20086;-55
2022/02/13 07:06:45;;;;;;;0.77;0.30;;;17.10;38.60;;;;;;5067370;28;20818;-53
2022/02/13 07:09:12;;;;;;;0.40;0.30;;;17.00;38.50;;;;;;5066177;28;20736;-55
2022/02/13 07:11:39;;;;;;;0.82;0.32;;;17.10;38.60;;;;;;5072152;28;20050;-54
2022/02/13 07:14:06;;;;;;;0.15;0.10;;;17.00;38.60;;;;;;5075479;28;20047;-55
2022/02/13 07:16:34;;;;;;;0.35;0.25;;;17.00;38.50;;;;;;5070647;28;20043;-56
2022/02/13 07:19:01;;;;;;;0.90;0.70;;;17.10;38.60;;;;;;5074410;28;20471;-54
2022/02/13 07:21:28;;;;;;;1.08;0.40;;;17.10;38.60;;;;;;5074046;28;20040;-54
2022/02/13 07:23:55;;;;;;;0.60;0.57;;;17.00;38.50;;;;;;5070510;28;20033;-52
2022/02/13 07:26:24;;;;;;;0.95;0.20;;;17.10;38.60;;;;;;5079277;28;20046;-54
2022/02/13 07:29:00;;;;;;;0.47;0.10;;;17.00;38.60;;;;;;5072316;28;20100;-54
2022/02/13 07:31:27;;;;;;;0.20;0.15;;;17.10;38.60;;;;;;5073053;28;21062;-55
2022/02/13 07:33:56;;;;;;;0.57;0.13;;;17.00;38.50;;;;;;5074966;28;20040;-54
2022/02/13 07:36:24;;;;;;;0.50;0.40;;;17.10;38.60;;;;;;5069310;28;20055;-56
2022/02/13 07:38:51;;;;;;;1.98;0.20;;;17.10;38.50;;;;;;5076032;28;20074;-54
2022/02/13 07:41:18;;;;;;;0.22;0.20;;;17.10;38.50;;;;;;5081213;28;20045;-53
2022/02/13 07:43:46;;;;;;;0.40;0.40;;;17.10;38.50;;;;;;5075105;28;20067;-52
2022/02/13 07:46:13;;;;;;;0.68;0.55;;;17.10;38.50;;;;;;5074981;28;20040;-55
2022/02/13 07:48:40;;;;;;;1.30;0.35;;;17.10;38.50;;;;;;5081399;28;20072;-50
2022/02/13 07:51:10;;;;;;;0.60;0.55;;;17.10;38.50;;;;;;5074913;28;20167;-53
2022/02/13 07:53:37;;;;;;;1.65;0.85;;;17.10;38.40;;;;;;5073871;28;20123;-53
2022/02/13 07:56:06;;;;;;;1.23;0.30;;;17.10;38.40;;;;;;5079834;28;20044;-52
2022/02/13 07:58:33;;;;;;;0.45;0.40;;;17.10;38.30;;;;;;5072624;28;20047;-55
2022/02/13 08:01:01;;;;;;;0.45;0.22;;;17.10;38.30;;;;;;5068664;28;20043;-54
2022/02/13 08:03:28;;;;;;;0.47;0.20;;;17.10;38.30;;;;;;5077035;28;20059;-55
2022/02/13 08:05:56;;;;;;;0.57;0.32;;;17.10;38.30;;;;;;5069952;28;20040;-55
2022/02/13 08:08:24;;;;;;;0.70;0.20;;;17.10;38.30;;;;;;5077607;28;20040;-51
2022/02/13 08:10:51;;;;;;;1.65;0.28;;;17.10;38.30;;;;;;5070156;28;20443;-53
2022/02/13 08:13:19;;;;;;;0.40;0.40;;;17.20;38.30;;;;;;5077407;28;20040;-54
2022/02/13 08:15:46;;;;;;;0.43;0.30;;;17.20;38.30;;;;;;5072143;28;20520;-52
2022/02/13 08:18:15;;;;;;;0.50;0.20;;;17.20;38.90;;;;;;5076315;28;20829;-55
2022/02/13 08:20:42;;;;;;;0.88;0.40;;;17.20;38.30;;;;;;5073454;28;20627;-53
2022/02/13 08:23:10;;;;;;;0.85;0.20;;;17.20;38.20;;;;;;5070597;28;20064;-52
2022/02/13 08:25:40;;;;;;;1.13;0.30;;;17.20;38.20;;;;;;5077446;28;20044;-53
2022/02/13 08:28:08;;;;;;;0.45;0.20;;;17.20;38.20;;;;;;5070350;28;20045;-54
2022/02/13 08:30:35;;;;;;;0.30;0.20;;;17.20;38.10;;;;;;5068326;28;20543;-54
2022/02/13 08:33:02;;;;;;;0.65;0.28;;;17.20;38.10;;;;;;5071505;28;20049;-53
2022/02/13 08:35:29;;;;;;;0.63;0.20;;;17.20;38.10;;;;;;5056028;28;20463;-53
2022/02/13 08:37:57;;;;;;;1.55;0.20;;;17.30;38.10;;;;;;5079551;28;20489;-54
2022/02/13 08:40:25;;;;;;;0.82;0.40;;;17.30;38.00;;;;;;5078788;28;20039;-55
2022/02/13 08:42:53;;;;;;;0.50;0.20;;;17.30;38.00;;;;;;5076398;28;20115;-55
2022/02/13 08:45:21;;;;;;;2.53;0.40;;;17.30;38.00;;;;;;5086680;28;20040;-56
2022/02/13 08:47:48;;;;;;;1.30;0.38;;;17.30;38.00;;;;;;5083490;28;20094;-55
2022/02/13 08:50:15;;;;;;;0.20;0.17;;;17.30;37.90;;;;;;5071652;28;20041;-56
2022/02/13 08:52:42;;;;;;;0.70;0.52;;;17.40;38.00;;;;;;5075415;28;20114;-53
2022/02/13 08:55:13;;;;;;;0.30;0.10;;;17.40;38.00;;;;;;5072977;28;20398;-53
2022/02/13 08:57:40;;;;;;;0.85;0.20;;;17.40;38.00;;;;;;5074023;28;20048;-50
2022/02/13 09:00:11;;;;;;;1.40;0.30;;;17.40;37.90;;;;;;5072991;28;20044;-55
2022/02/13 09:02:38;;;;;;;0.43;0.20;;;17.40;37.90;;;;;;5082963;28;20049;-54
2022/02/13 09:05:07;;;;;;;0.50;0.30;;;17.40;37.90;;;;;;5076866;28;20087;-53
2022/02/13 09:07:35;;;;;;;2.03;0.50;;;17.40;37.80;;;;;;5076391;28;20044;-54
2022/02/13 09:10:03;;;;;;;1.40;1.08;;;17.40;37.80;;;;;;5068313;28;20663;-54
2022/02/13 09:12:32;;;;;;;0.30;0.20;;;17.50;37.90;;;;;;5082162;28;20576;-56
2022/02/13 09:15:00;;;;;;;0.68;0.45;;;17.50;37.80;;;;;;5087992;28;20071;-55
2022/02/13 09:17:29;;;;;;;1.05;0.35;;;17.50;37.80;;;;;;5074972;28;20145;-51
2022/02/13 09:19:56;;;;;;;1.85;0.30;;;17.50;37.70;;;;;;5074420;28;20093;-55
2022/02/13 09:22:23;;;;;;;0.50;0.20;;;17.50;37.70;;;;;;5074588;28;20043;-55
2022/02/13 09:24:50;;;;;;;1.17;0.10;;;17.60;37.70;;;;;;5074220;28;20059;-55
2022/02/13 09:27:18;;;;;;;0.40;0.20;;;17.60;37.70;;;;;;5077163;28;20140;-53
2022/02/13 09:29:46;;;;;;;0.63;0.10;;;17.60;37.70;;;;;;5085971;28;20135;-52
2022/02/13 09:32:15;;;;;;;1.55;0.20;;;17.60;37.60;;;;;;5081041;28;20139;-54
2022/02/13 09:34:43;;;;;;;0.55;0.20;;;17.60;37.60;;;;;;5072537;28;20083;-54
2022/02/13 09:37:10;;;;;;;0.77;0.20;;;17.70;37.60;;;;;;5073281;28;20512;-53
2022/02/13 09:39:38;;;;;;;0.95;0.20;;;17.60;37.50;;;;;;5082857;28;20036;-54
2022/02/13 09:42:07;;;;;;;1.10;0.30;;;17.70;37.50;;;;;;5078731;28;20051;-55
2022/02/13 09:44:35;;;;;;;1.05;0.45;;;17.70;37.40;;;;;;5073122;28;20036;-54
2022/02/13 09:47:02;;;;;;;0.47;0.30;;;17.70;37.40;;;;;;5074103;28;20457;-56
2022/02/13 09:49:29;;;;;;;0.30;0.20;;;17.70;37.30;;;;;;5073554;28;20044;-54
2022/02/13 09:52:01;;;;;;;1.50;0.17;;;17.80;37.40;;;;;;5076526;28;20055;-55
2022/02/13 09:54:28;;;;;;;0.52;0.20;;;17.80;37.30;;;;;;5071059;28;20045;-56
2022/02/13 09:57:59;;;;;;;0.98;0.38;;;17.90;37.30;;;;;;5083427;28;20046;-55
2022/02/13 09:59:55;;;;;;;0.60;0.32;;;17.90;37.20;;;;;;5073683;28;20051;-55
2022/02/13 10:02:34;;;;;;;0.43;0.30;;;18.00;37.20;;;;;;5072721;28;20424;-52
2022/02/13 10:05:02;;;;;;;0.70;0.20;;;18.00;37.10;;;;;;5076307;28;20040;-53
2022/02/13 10:07:33;;;;;;;0.43;0.30;;;18.00;37.10;;;;;;5074640;28;20055;-54
2022/02/13 10:10:02;;;;;;;0.63;0.40;;;18.00;37.10;;;;;;5067884;28;20052;-53
2022/02/13 10:12:31;;;;;;;0.40;0.40;;;18.10;37.00;;;;;;5076572;28;20327;-55
2022/02/13 10:14:58;;;;;;;0.85;0.30;;;18.10;37.00;;;;;;5071780;28;20072;-52
2022/02/13 10:17:26;;;;;;;0.57;0.38;;;18.10;37.00;;;;;;5072718;28;20062;-54
2022/02/13 10:19:54;;;;;;;1.55;0.28;;;18.10;36.90;;;;;;5070550;28;20044;-54
2022/02/13 10:22:36;;;;;;;0.50;0.30;;;18.20;37.00;;;;;;5073998;28;20068;-53
2022/02/13 10:25:17;;;;;;;1.30;0.32;;;18.20;36.90;;;;;;5081478;28;20039;-55
2022/02/13 10:27:48;;;;;;;1.65;0.30;;;18.30;36.90;;;;;;5071423;28;20466;-51
2022/02/13 10:30:34;;;;;;;0.93;0.30;;;18.30;36.80;;;;;;5068823;28;20040;-51
2022/02/13 10:33:15;;;;;;;0.45;0.20;;;18.40;36.80;;;;;;5075110;28;20492;-54
2022/02/13 10:35:42;;;;;;;0.57;0.40;;;18.40;36.80;;;;;;5071237;28;20063;-55
2022/02/13 10:38:11;;;;;;;0.43;0.20;;;18.40;36.70;;;;;;5069682;28;20055;-54
2022/02/13 10:40:38;;;;;;;0.90;0.20;;;18.50;36.70;;;;;;5072554;28;20039;-55
2022/02/13 10:43:09;;;;;;;0.55;0.28;;;18.50;36.70;;;;;;5070507;28;20036;-54
2022/02/13 10:45:38;;;;;;;0.75;0.35;;;18.60;36.70;;;;;;5067360;28;20501;-56
2022/02/13 10:48:07;;;;;;;0.30;0.20;;;18.60;36.70;;;;;;5067802;28;20044;-53
2022/02/13 10:50:37;;;;;;;0.88;0.30;;;18.60;36.60;;;;;;5072906;28;20049;-55
2022/02/13 10:53:06;;;;;;;0.45;0.30;;;18.70;36.60;;;;;;5073650;28;20560;-55
2022/02/13 10:55:37;;;;;;;0.60;0.60;;;18.70;36.60;;;;;;5070240;28;20052;-55
2022/02/13 10:58:05;;;;;;;0.30;0.30;;;18.80;36.50;;;;;;5069273;28;20137;-55
2022/02/13 11:00:32;;;;;;;0.85;0.30;;;18.80;37.10;;;;;;5065243;28;20044;-52
2022/02/13 11:03:04;;;;;;;0.80;0.30;;;18.90;36.50;;;;;;5073431;28;20048;-56
2022/02/13 11:05:32;;;;;;;1.17;0.45;;;18.90;36.40;;;;;;5065509;28;20040;-55
2022/02/13 11:08:06;;;;;;;1.33;0.60;;;19.00;36.30;;;;;;5071039;28;20036;-54
2022/02/13 11:10:42;;;;;;;1.15;0.38;;;19.20;36.30;;;;;;5067372;28;20046;-51
2022/02/13 11:13:11;;;;;;;0.52;0.20;;;19.20;36.20;;;;;;5064939;28;20055;-52
2022/02/13 11:15:42;;;;;;;0.82;0.40;;;19.30;36.20;;;;;;5064854;28;20037;-54
2022/02/13 11:18:16;;;;;;;1.13;0.40;;;19.30;36.10;;;;;;5058087;28;20600;-55
2022/02/13 11:20:44;;;;;;;1.27;0.30;;;19.40;36.10;;;;;;5071067;28;20056;-52
2022/02/13 11:23:19;;;;;;;0.43;0.20;;;19.50;36.00;;;;;;5073859;28;20054;-53
2022/02/13 11:25:56;;;;;;;0.83;0.23;;;19.60;35.90;;;;;;5067473;28;20495;-52
2022/02/13 11:28:27;;;;;;;3.20;0.38;;;19.70;35.90;;;;;;5073497;28;20394;-51
2022/02/13 11:30:56;;;;;;;1.48;0.25;;;19.70;35.80;;;;;;5067408;28;20043;-52
2022/02/13 11:33:42;;;;;;;1.35;0.25;;;19.80;35.70;;;;;;5080764;28;20816;-52
2022/02/13 11:36:12;;;;;;;1.58;0.38;;;19.90;35.70;;;;;;5065705;28;20070;-56
2022/02/13 11:38:59;;;;;;;2.80;0.30;;;19.90;35.60;;;;;;5068391;28;20040;-55
2022/02/13 11:42:09;;;;;;;0.68;0.20;;;20.10;35.50;;;;;;5073357;28;20117;-56
2022/02/13 11:44:41;;;;;;;0.63;0.20;;;20.10;35.40;;;;;;5082721;28;20131;-54
2022/02/13 11:47:10;;;;;;;0.70;0.50;;;20.20;35.50;;;;;;5070750;28;20041;-54
2022/02/13 11:50:24;;;;;;;1.35;0.45;;;20.20;35.40;;;;;;5072825;28;20600;-55
2022/02/13 11:52:54;;;;;;;0.75;0.25;;;20.40;35.30;;;;;;5065348;28;20140;-53
2022/02/13 11:55:26;;;;;;;5.55;0.73;;;20.40;35.20;;;;;;5067461;28;20044;-57
2022/02/13 11:57:55;;;;;;;0.95;0.32;;;20.50;35.20;;;;;;5080106;28;20124;-54
2022/02/13 12:00:36;;;;;;;0.45;0.38;;;20.50;35.10;;;;;;5069184;28;20147;-55
2022/02/13 12:03:13;;;;;;;0.43;0.43;;;20.60;35.00;;;;;;5066297;28;20463;-55
2022/02/13 12:05:41;;;;;;;1.17;0.15;;;20.70;34.90;;;;;;5074935;28;20048;-55
2022/02/13 12:08:08;;;;;;;1.20;0.43;;;20.80;34.90;;;;;;5064599;28;20116;-56
2022/02/13 12:10:39;;;;;;;1.25;0.20;;;20.80;34.80;;;;;;5069346;28;20123;-56
2022/02/13 12:13:11;;;;;;;1.05;0.50;;;20.90;34.80;;;;;;5068258;28;20127;-55
2022/02/13 12:15:48;;;;;;;0.95;0.30;;;21.00;34.70;;;;;;5071839;28;20463;-54
2022/02/13 12:18:16;;;;;;;1.20;0.63;;;21.00;34.60;;;;;;5081198;28;20044;-55
2022/02/13 12:20:44;;;;;;;0.52;0.30;;;21.10;34.60;;;;;;5073896;28;20055;-50
2022/02/13 12:23:14;;;;;;;1.85;0.45;;;21.10;34.50;;;;;;5077213;28;20048;-53
2022/02/13 12:25:42;;;;;;;1.33;0.43;;;21.20;34.50;;;;;;5071823;28;20040;-53
2022/02/13 12:28:30;;;;;;;1.67;0.68;;;21.20;34.60;;;;;;5073129;28;20101;-54
2022/02/13 12:31:23;;;;;;;0.75;0.20;;;21.30;34.40;;;;;;5068354;28;20055;-55
2022/02/13 12:33:54;;;;;;;2.33;1.38;;;21.30;34.30;;;;;;5072329;28;20082;-53
2022/02/13 12:36:40;;;;;;;0.40;0.30;;;21.30;34.20;;;;;;5068960;28;20421;-55
2022/02/13 12:39:08;;;;;;;2.53;0.40;;;21.40;34.20;;;;;;5072476;28;20712;-57
2022/02/13 12:41:35;;;;;;;1.08;0.25;;;21.40;34.20;;;;;;5068595;28;20052;-54
2022/02/13 12:44:02;;;;;;;2.63;0.30;;;21.40;34.10;;;;;;5070821;28;20036;-56
2022/02/13 12:46:31;;;;;;;0.28;0.20;;;21.40;34.00;;;;;;5070530;28;20032;-56
2022/02/13 12:48:58;;;;;;;3.55;0.30;;;21.50;34.00;;;;;;5074223;28;20072;-53
2022/02/13 12:51:27;;;;;;;0.43;0.30;;;21.50;34.00;;;;;;5076613;28;20044;-57
2022/02/13 12:53:57;;;;;;;0.68;0.30;;;21.50;34.00;;;;;;5076726;28;20047;-55
2022/02/13 12:56:26;;;;;;;1.02;0.25;;;21.50;33.90;;;;;;5077997;28;20142;-55